createdAt,value
2017-10-04T00:00:33.075Z,2.63
2017-10-04T00:03:00.670Z,2.77
2017-10-04T00:05:28.330Z,2.40
2017-10-04T00:07:55.878Z,2.83
2017-10-04T00:10:23.494Z,3.03
2017-10-04T00:12:52.177Z,3.17
2017-10-04T00:15:19.710Z,2.70
2017-10-04T00:17:47.297Z,2.80
2017-10-04T00:20:14.889Z,2.73
2017-10-04T00:22:42.541Z,2.90
2017-10-04T00:25:10.198Z,3.17
2017-10-04T00:27:37.773Z,2.80
2017-10-04T00:30:05.326Z,2.80
2017-10-04T00:32:32.953Z,2.43
2017-10-04T00:35:00.491Z,3.20
2017-10-04T00:37:28.242Z,3.33
2017-10-04T00:39:55.806Z,2.80
2017-10-04T00:42:23.421Z,3.20
2017-10-04T00:44:50.966Z,3.07
2017-10-04T00:47:18.642Z,2.63
2017-10-04T00:49:46.304Z,2.90
2017-10-04T00:52:14.360Z,3.37
2017-10-04T00:54:41.915Z,2.70
2017-10-04T00:57:09.533Z,3.60
2017-10-04T00:59:37.091Z,3.27
2017-10-04T01:02:04.713Z,2.80
2017-10-04T01:04:33.084Z,3.03
2017-10-04T01:07:00.694Z,3.37
2017-10-04T01:09:28.615Z,2.70
2017-10-04T01:11:56.364Z,3.70
2017-10-04T01:14:23.988Z,2.80
2017-10-04T01:16:52.353Z,2.60
2017-10-04T01:19:20.038Z,2.50
2017-10-04T01:21:47.573Z,2.77
2017-10-04T01:24:15.176Z,2.80
2017-10-04T01:26:43.501Z,2.80
2017-10-04T01:29:11.109Z,2.90
2017-10-04T01:31:38.668Z,2.80
2017-10-04T01:34:06.291Z,3.20
2017-10-04T01:36:33.886Z,2.80
2017-10-04T01:39:01.469Z,2.93
2017-10-04T01:41:29.016Z,3.10
2017-10-04T01:43:56.593Z,3.23
2017-10-04T01:46:24.237Z,2.33
2017-10-04T01:48:51.881Z,3.07
2017-10-04T01:51:19.442Z,3.10
2017-10-04T01:53:47.272Z,2.60
2017-10-04T01:56:14.882Z,3.17
2017-10-04T01:58:42.447Z,3.33
2017-10-04T02:01:10.097Z,3.00
2017-10-04T02:03:37.665Z,2.93
2017-10-04T02:06:05.285Z,3.27
2017-10-04T02:08:32.877Z,3.10
2017-10-04T02:11:00.482Z,3.20
2017-10-04T02:13:28.033Z,3.63
2017-10-04T02:15:55.670Z,3.70
2017-10-04T02:18:23.257Z,3.17
2017-10-04T02:20:51.638Z,3.10
2017-10-04T02:23:19.985Z,2.97
2017-10-04T02:25:47.610Z,3.10
2017-10-04T02:28:15.170Z,2.93
2017-10-04T02:30:42.761Z,3.10
2017-10-04T02:33:11.881Z,2.70
2017-10-04T02:35:40.812Z,3.10
2017-10-04T02:38:08.425Z,3.37
2017-10-04T02:40:36.106Z,2.90
2017-10-04T02:43:03.733Z,3.10
2017-10-04T02:45:31.353Z,3.67
2017-10-04T02:47:58.913Z,3.37
2017-10-04T02:50:26.452Z,2.93
2017-10-04T02:52:55.173Z,2.90
2017-10-04T02:55:22.730Z,3.30
2017-10-04T02:57:50.331Z,2.90
2017-10-04T03:00:17.882Z,2.90
2017-10-04T03:02:45.558Z,3.63
2017-10-04T03:05:13.107Z,3.20
2017-10-04T03:07:40.664Z,3.73
2017-10-04T03:10:08.265Z,3.27
2017-10-04T03:12:35.845Z,2.77
2017-10-04T03:15:03.485Z,3.30
2017-10-04T03:17:31.070Z,3.63
2017-10-04T03:19:58.623Z,3.60
2017-10-04T03:22:26.279Z,3.10
2017-10-04T03:24:54.257Z,3.10
2017-10-04T03:27:21.913Z,2.87
2017-10-04T03:29:49.449Z,2.73
2017-10-04T03:32:17.007Z,3.23
2017-10-04T03:34:44.597Z,3.20
2017-10-04T03:37:12.145Z,3.63
2017-10-04T03:39:39.785Z,3.03
2017-10-04T03:42:07.363Z,2.93
2017-10-04T03:44:34.960Z,3.30
2017-10-04T03:47:02.525Z,2.73
2017-10-04T03:49:30.901Z,3.57
2017-10-04T03:51:58.449Z,3.30
2017-10-04T03:54:26.073Z,2.80
2017-10-04T03:56:53.665Z,3.13
2017-10-04T03:59:21.293Z,3.03
2017-10-04T04:01:49.754Z,2.90
2017-10-04T04:04:17.338Z,4.10
2017-10-04T04:06:44.896Z,4.60
2017-10-04T04:09:12.486Z,4.90
2017-10-04T04:11:40.017Z,4.20
2017-10-04T04:14:07.625Z,4.20
2017-10-04T04:16:35.242Z,3.97
2017-10-04T04:19:02.825Z,3.67
2017-10-04T04:21:30.380Z,4.20
2017-10-04T04:23:57.941Z,3.90
2017-10-04T04:26:25.540Z,4.17
2017-10-04T04:28:53.125Z,4.07
2017-10-04T04:31:20.713Z,3.77
2017-10-04T04:33:48.269Z,4.03
2017-10-04T04:36:16.625Z,4.30
2017-10-04T04:38:55.738Z,3.90
2017-10-04T04:41:23.342Z,3.87
2017-10-04T04:43:50.901Z,3.77
2017-10-04T04:46:18.481Z,4.53
2017-10-04T04:48:46.016Z,4.40
2017-10-04T04:51:13.596Z,3.80
2017-10-04T04:53:41.193Z,5.33
2017-10-04T04:56:08.834Z,3.93
2017-10-04T04:58:36.392Z,4.87
2017-10-04T05:01:04.422Z,4.93
2017-10-04T05:03:32.034Z,4.03
2017-10-04T05:05:59.597Z,4.10
2017-10-04T05:08:27.273Z,4.30
2017-10-04T05:10:55.577Z,4.90
2017-10-04T05:13:23.237Z,3.93
2017-10-04T05:15:50.790Z,4.13
2017-10-04T05:18:18.409Z,4.47
2017-10-04T05:20:45.970Z,4.50
2017-10-04T05:23:13.569Z,4.50
2017-10-04T05:25:41.185Z,3.57
2017-10-04T05:28:08.790Z,3.90
2017-10-04T05:30:36.349Z,3.70
2017-10-04T05:33:03.948Z,4.20
2017-10-04T05:35:31.511Z,3.90
2017-10-04T05:37:59.076Z,4.10
2017-10-04T05:40:26.685Z,4.20
2017-10-04T05:42:54.237Z,4.67
2017-10-04T05:45:22.763Z,5.33
2017-10-04T05:47:50.327Z,5.33
2017-10-04T05:50:17.934Z,6.07
2017-10-04T05:52:45.540Z,7.47
2017-10-04T05:55:13.201Z,8.10
2017-10-04T05:57:40.760Z,7.20
2017-10-04T06:00:08.340Z,6.50
2017-10-04T06:02:35.889Z,6.60
2017-10-04T06:05:03.493Z,7.00
2017-10-04T06:07:31.094Z,6.87
2017-10-04T06:09:59.172Z,5.93
2017-10-04T06:12:26.723Z,6.40
2017-10-04T06:14:54.281Z,5.57
2017-10-04T06:17:21.957Z,5.37
2017-10-04T06:19:49.514Z,5.17
2017-10-04T06:22:17.112Z,4.70
2017-10-04T06:24:44.683Z,4.63
2017-10-04T06:27:12.277Z,5.10
2017-10-04T06:29:40.209Z,5.50
2017-10-04T06:32:07.804Z,5.00
2017-10-04T06:34:36.693Z,5.30
2017-10-04T06:37:04.281Z,5.20
2017-10-04T06:39:31.834Z,5.00
2017-10-04T06:41:59.421Z,5.90
2017-10-04T06:44:27.366Z,6.60
2017-10-04T06:46:56.302Z,5.50
2017-10-04T06:49:25.186Z,5.20
2017-10-04T06:51:52.793Z,4.50
2017-10-04T06:54:20.349Z,5.53
2017-10-04T06:56:47.945Z,5.17
2017-10-04T06:59:16.473Z,5.10
2017-10-04T07:01:45.172Z,4.90
2017-10-04T07:04:12.716Z,4.90
2017-10-04T07:06:40.276Z,5.20
2017-10-04T07:09:08.681Z,5.20
2017-10-04T07:11:36.228Z,5.40
2017-10-04T07:14:03.830Z,5.27
2017-10-04T07:16:31.385Z,5.63
2017-10-04T07:18:58.988Z,5.10
2017-10-04T07:21:27.291Z,5.47
2017-10-04T07:23:54.881Z,5.43
2017-10-04T07:26:22.479Z,6.03
2017-10-04T07:28:50.066Z,5.30
2017-10-04T07:31:17.623Z,5.47
2017-10-04T07:33:45.190Z,5.93
2017-10-04T07:36:12.733Z,5.43
2017-10-04T07:38:40.338Z,5.83
2017-10-04T07:41:07.890Z,5.47
2017-10-04T07:43:35.490Z,5.37
2017-10-04T07:46:03.900Z,5.97
2017-10-04T07:48:31.443Z,5.27
2017-10-04T07:50:59.045Z,5.37
2017-10-04T07:53:27.725Z,6.20
2017-10-04T07:55:55.345Z,6.03
2017-10-04T07:58:22.887Z,5.90
2017-10-04T08:00:50.510Z,5.73
2017-10-04T08:03:18.061Z,5.37
2017-10-04T08:05:45.664Z,6.47
2017-10-04T08:08:13.222Z,6.40
2017-10-04T08:10:40.809Z,5.80
2017-10-04T08:13:08.748Z,5.60
2017-10-04T08:15:36.336Z,5.80
2017-10-04T08:18:03.906Z,5.10
2017-10-04T08:20:31.901Z,5.10
2017-10-04T08:22:59.862Z,5.63
2017-10-04T08:25:27.477Z,6.00
2017-10-04T08:27:55.021Z,5.77
2017-10-04T08:30:22.568Z,5.07
2017-10-04T08:32:50.648Z,5.20
2017-10-04T08:35:18.207Z,5.33
2017-10-04T08:37:46.229Z,4.83
2017-10-04T08:40:14.961Z,4.90
2017-10-04T08:42:42.548Z,4.93
2017-10-04T08:45:10.109Z,4.60
2017-10-04T08:47:49.578Z,4.70
2017-10-04T08:50:17.158Z,4.33
2017-10-04T08:52:44.749Z,4.60
2017-10-04T08:55:13.437Z,4.50
2017-10-04T08:57:41.033Z,3.97
2017-10-04T09:00:08.590Z,4.20
2017-10-04T09:02:36.972Z,4.13
2017-10-04T09:05:16.202Z,5.10
2017-10-04T09:07:43.773Z,4.63
2017-10-04T09:10:11.321Z,4.87
2017-10-04T09:12:38.941Z,4.77
2017-10-04T09:15:06.479Z,4.87
2017-10-04T09:17:34.036Z,4.50
2017-10-04T09:20:02.762Z,4.40
2017-10-04T09:22:30.332Z,4.80
2017-10-04T09:24:57.962Z,5.00
2017-10-04T09:27:25.514Z,4.23
2017-10-04T09:29:53.109Z,4.10
2017-10-04T09:32:20.665Z,4.80
2017-10-04T09:34:48.850Z,4.70
2017-10-04T09:37:16.405Z,4.87
2017-10-04T09:39:44.006Z,4.90
2017-10-04T09:42:11.564Z,4.77
2017-10-04T09:44:39.146Z,5.20
2017-10-04T09:47:06.698Z,5.30
2017-10-04T09:49:34.293Z,4.77
2017-10-04T09:52:01.857Z,5.10
2017-10-04T09:54:29.457Z,4.63
2017-10-04T09:56:57.016Z,4.37
2017-10-04T09:59:24.658Z,5.00
2017-10-04T10:01:53.014Z,4.73
2017-10-04T10:04:20.582Z,4.50
2017-10-04T10:06:48.169Z,4.40
2017-10-04T10:09:15.727Z,4.43
2017-10-04T10:11:43.308Z,4.50
2017-10-04T10:14:10.844Z,4.33
2017-10-04T10:16:38.422Z,4.33
2017-10-04T10:19:07.759Z,4.80
2017-10-04T10:21:35.733Z,4.47
2017-10-04T10:24:04.046Z,4.30
2017-10-04T10:26:31.633Z,4.07
2017-10-04T10:28:59.194Z,4.70
2017-10-04T10:31:27.541Z,4.40
2017-10-04T10:33:55.099Z,4.20
2017-10-04T10:36:22.682Z,4.07
2017-10-04T10:38:50.989Z,4.40
2017-10-04T10:41:18.618Z,4.87
2017-10-04T10:43:46.177Z,4.20
2017-10-04T10:46:13.729Z,4.37
2017-10-04T10:48:41.321Z,4.80
2017-10-04T10:51:08.876Z,4.50
2017-10-04T10:53:36.855Z,4.83
2017-10-04T10:56:04.415Z,4.37
2017-10-04T10:58:32.013Z,5.37
2017-10-04T11:00:59.553Z,4.63
2017-10-04T11:03:27.146Z,3.93
2017-10-04T11:05:54.701Z,4.10
2017-10-04T11:08:22.686Z,4.37
2017-10-04T11:10:50.236Z,3.93
2017-10-04T11:13:17.831Z,4.67
2017-10-04T11:15:45.362Z,4.10
2017-10-04T11:18:12.950Z,4.77
2017-10-04T11:20:40.503Z,4.90
2017-10-04T11:23:08.943Z,5.10
2017-10-04T11:25:36.484Z,4.87
2017-10-04T11:28:04.070Z,4.60
2017-10-04T11:30:32.009Z,5.33
2017-10-04T11:33:00.002Z,4.73
2017-10-04T11:35:27.550Z,4.40
2017-10-04T11:37:55.154Z,4.80
2017-10-04T11:40:22.733Z,4.90
2017-10-04T11:42:50.266Z,4.50
2017-10-04T11:45:17.871Z,4.97
2017-10-04T11:47:46.173Z,4.80
2017-10-04T11:50:13.757Z,4.27
2017-10-04T11:52:41.698Z,4.33
2017-10-04T11:55:11.807Z,4.30
2017-10-04T11:57:40.167Z,4.80
2017-10-04T12:00:07.746Z,4.77
2017-10-04T12:02:35.297Z,5.37
2017-10-04T12:05:02.901Z,4.87
2017-10-04T12:07:30.842Z,5.53
2017-10-04T12:09:58.471Z,5.20
2017-10-04T12:12:26.028Z,4.90
2017-10-04T12:14:53.649Z,4.83
2017-10-04T12:17:21.247Z,4.80
2017-10-04T12:19:52.109Z,4.70
2017-10-04T12:22:19.661Z,4.17
2017-10-04T12:24:47.262Z,4.67
2017-10-04T12:27:14.818Z,5.13
2017-10-04T12:29:42.418Z,5.07
2017-10-04T12:32:09.976Z,4.90
2017-10-04T12:34:37.562Z,5.20
2017-10-04T12:37:05.117Z,4.63
2017-10-04T12:39:32.705Z,4.53
2017-10-04T12:42:01.028Z,4.77
2017-10-04T12:44:28.643Z,4.60
2017-10-04T12:46:56.197Z,4.53
2017-10-04T12:49:23.758Z,4.03
2017-10-04T12:51:51.362Z,4.90
2017-10-04T12:54:18.921Z,4.63
2017-10-04T12:56:46.534Z,4.73
2017-10-04T12:59:14.859Z,4.90
2017-10-04T13:01:43.215Z,4.80
2017-10-04T13:04:10.774Z,4.70
2017-10-04T13:06:38.351Z,4.60
2017-10-04T13:09:05.910Z,5.00
2017-10-04T13:11:33.495Z,4.27
2017-10-04T13:14:01.049Z,4.17
2017-10-04T13:16:29.402Z,4.27
2017-10-04T13:18:56.961Z,4.77
2017-10-04T13:21:24.541Z,3.80
2017-10-04T13:23:52.102Z,3.87
2017-10-04T13:26:19.702Z,4.20
2017-10-04T13:28:47.256Z,3.60
2017-10-04T13:31:14.870Z,3.63
2017-10-04T13:33:42.430Z,3.40
2017-10-04T13:36:09.970Z,3.40
2017-10-04T13:38:37.545Z,3.37
2017-10-04T13:41:05.087Z,3.13
2017-10-04T13:43:32.670Z,3.63
2017-10-04T13:46:00.217Z,3.37
2017-10-04T13:48:27.822Z,3.20
2017-10-04T13:50:55.422Z,2.97
2017-10-04T13:53:23.011Z,3.10
2017-10-04T13:55:50.564Z,2.80
2017-10-04T13:58:18.153Z,2.63
2017-10-04T14:00:45.709Z,2.57
2017-10-04T14:03:13.316Z,2.20
2017-10-04T14:05:40.875Z,2.73
2017-10-04T14:08:08.445Z,2.20
2017-10-04T14:10:35.990Z,1.80
2017-10-04T14:13:03.570Z,1.80
2017-10-04T14:15:31.123Z,2.23
2017-10-04T14:17:58.726Z,1.80
2017-10-04T14:20:26.288Z,2.07
2017-10-04T14:22:53.842Z,2.10
2017-10-04T14:25:21.441Z,2.50
2017-10-04T14:27:49.128Z,2.30
2017-10-04T14:30:17.436Z,1.97
2017-10-04T14:32:44.988Z,2.63
2017-10-04T14:35:12.698Z,2.30
2017-10-04T14:37:40.257Z,2.10
2017-10-04T14:40:07.834Z,1.90
2017-10-04T14:42:35.390Z,1.80
2017-10-04T14:45:02.989Z,2.20
2017-10-04T14:47:30.541Z,2.10
2017-10-04T14:49:58.132Z,2.20
2017-10-04T14:52:25.669Z,1.73
2017-10-04T14:54:53.265Z,2.00
2017-10-04T14:57:20.826Z,1.70
2017-10-04T14:59:48.460Z,1.70
2017-10-04T15:02:16.048Z,2.17
2017-10-04T15:04:43.630Z,1.80
2017-10-04T15:07:11.177Z,1.93
2017-10-04T15:09:38.769Z,2.30
2017-10-04T15:12:06.330Z,2.00
2017-10-04T15:14:33.919Z,2.30
2017-10-04T15:17:01.495Z,2.43
2017-10-04T15:19:29.081Z,1.90
2017-10-04T15:21:56.635Z,2.13
2017-10-04T15:24:24.270Z,2.40
2017-10-04T15:26:51.829Z,1.97
2017-10-04T15:29:19.393Z,2.40
2017-10-04T15:31:47.091Z,2.43
2017-10-04T15:34:23.588Z,2.30
2017-10-04T15:36:51.945Z,2.90
2017-10-04T15:39:19.509Z,2.50
2017-10-04T15:41:47.075Z,2.70
2017-10-04T15:44:14.627Z,2.40
2017-10-04T15:46:42.969Z,2.50
2017-10-04T15:49:10.915Z,3.03
2017-10-04T15:51:38.492Z,2.77
2017-10-04T15:54:06.437Z,2.57
2017-10-04T15:56:34.018Z,2.60
2017-10-04T15:59:01.553Z,2.33
2017-10-04T16:01:29.134Z,2.77
2017-10-04T16:03:56.692Z,4.77
2017-10-04T16:06:24.663Z,2.80
2017-10-04T16:08:52.218Z,2.93
2017-10-04T16:11:19.855Z,2.90
2017-10-04T16:13:58.859Z,3.30
2017-10-04T16:16:26.458Z,3.03
2017-10-04T16:18:54.408Z,3.10
2017-10-04T16:21:22.743Z,2.87
2017-10-04T16:23:50.361Z,3.10
2017-10-04T16:26:18.018Z,2.67
2017-10-04T16:28:45.973Z,3.00
2017-10-04T16:31:13.530Z,2.70
2017-10-04T16:33:41.146Z,3.10
2017-10-04T16:36:08.704Z,2.97
2017-10-04T16:38:36.308Z,3.37
2017-10-04T16:41:04.827Z,3.30
2017-10-04T16:43:32.858Z,3.20
2017-10-04T16:46:00.415Z,3.17
2017-10-04T16:48:28.014Z,2.83
2017-10-04T16:50:55.720Z,3.20
2017-10-04T16:53:23.319Z,3.10
2017-10-04T16:55:51.262Z,2.83
2017-10-04T16:58:18.838Z,2.67
2017-10-04T17:00:46.413Z,3.40
2017-10-04T17:03:16.320Z,2.73
2017-10-04T17:05:45.716Z,2.83
2017-10-04T17:08:14.259Z,3.20
2017-10-04T17:10:41.834Z,3.23
2017-10-04T17:13:16.323Z,2.83
2017-10-04T17:15:44.645Z,3.20
2017-10-04T17:18:12.207Z,3.27
2017-10-04T17:20:39.820Z,3.23
2017-10-04T17:23:08.143Z,2.77
2017-10-04T17:25:36.506Z,4.97
2017-10-04T17:28:08.785Z,3.63
2017-10-04T17:30:36.795Z,4.60
2017-10-04T17:33:05.506Z,3.57
2017-10-04T17:35:33.125Z,3.20
2017-10-04T17:38:00.702Z,3.23
2017-10-04T17:40:28.302Z,3.13
2017-10-04T17:42:56.613Z,3.10
2017-10-04T17:45:24.974Z,2.77
2017-10-04T17:47:52.527Z,2.70
2017-10-04T17:50:20.518Z,3.00
2017-10-04T17:52:48.094Z,3.20
2017-10-04T17:55:15.665Z,2.87
2017-10-04T17:57:43.217Z,3.13
2017-10-04T18:00:11.225Z,3.80
2017-10-04T18:02:38.803Z,3.20
2017-10-04T18:05:07.281Z,3.60
2017-10-04T18:07:34.858Z,3.40
2017-10-04T18:10:02.482Z,3.10
2017-10-04T18:12:30.914Z,3.40
2017-10-04T18:14:58.520Z,3.90
2017-10-04T18:17:26.105Z,3.13
2017-10-04T18:19:53.663Z,3.20
2017-10-04T18:22:22.031Z,3.43
2017-10-04T18:24:49.586Z,3.10
2017-10-04T18:27:17.188Z,3.80
2017-10-04T18:29:45.200Z,3.40
2017-10-04T18:32:12.782Z,3.73
2017-10-04T18:34:40.332Z,4.00
2017-10-04T18:37:08.693Z,3.53
2017-10-04T18:39:36.251Z,4.00
2017-10-04T18:42:04.969Z,3.80
2017-10-04T18:44:32.517Z,3.87
2017-10-04T18:47:00.110Z,3.80
2017-10-04T18:49:28.044Z,4.17
2017-10-04T18:51:55.681Z,4.30
2017-10-04T18:54:23.984Z,4.13
2017-10-04T18:56:53.562Z,3.90
2017-10-04T18:59:22.970Z,4.13
2017-10-04T19:01:50.556Z,4.00
2017-10-04T19:04:18.106Z,4.47
2017-10-04T19:06:45.741Z,4.80
2017-10-04T19:09:13.299Z,4.50
2017-10-04T19:11:40.857Z,4.13
2017-10-04T19:14:08.497Z,4.27
2017-10-04T19:16:36.819Z,4.17
2017-10-04T19:19:04.454Z,4.30
2017-10-04T19:21:32.011Z,4.40
2017-10-04T19:23:59.602Z,4.70
2017-10-04T19:26:28.314Z,4.60
2017-10-04T19:28:56.666Z,4.20
2017-10-04T19:31:24.210Z,4.80
2017-10-04T19:33:51.781Z,4.67
2017-10-04T19:36:19.326Z,4.93
2017-10-04T19:38:46.920Z,4.40
2017-10-04T19:41:14.484Z,4.33
2017-10-04T19:43:42.110Z,28.73
2017-10-04T19:46:09.667Z,4.97
2017-10-04T19:48:37.226Z,4.43
2017-10-04T19:51:04.822Z,5.00
2017-10-04T19:53:32.383Z,4.17
2017-10-04T19:56:00.353Z,5.20
2017-10-04T19:58:28.305Z,4.60
2017-10-04T20:00:56.690Z,4.30
2017-10-04T20:03:25.594Z,4.67
2017-10-04T20:05:53.588Z,4.63
2017-10-04T20:08:23.340Z,4.47
2017-10-04T20:10:50.974Z,4.80
2017-10-04T20:13:18.535Z,4.70
2017-10-04T20:15:46.608Z,4.53
2017-10-04T20:18:14.171Z,4.77
2017-10-04T20:20:41.789Z,4.70
2017-10-04T20:23:09.726Z,4.20
2017-10-04T20:25:37.455Z,4.10
2017-10-04T20:28:06.357Z,4.57
2017-10-04T20:30:46.598Z,4.53
2017-10-04T20:33:14.956Z,3.80
2017-10-04T20:35:42.906Z,4.00
2017-10-04T20:38:11.262Z,4.53
2017-10-04T20:40:40.348Z,4.20
2017-10-04T20:43:09.112Z,7.77
2017-10-04T20:45:36.661Z,8.50
2017-10-04T20:48:04.254Z,11.17
2017-10-04T20:53:06.010Z,13.13
2017-10-04T20:55:33.593Z,16.07
2017-10-04T20:58:02.555Z,14.07
2017-10-04T21:00:31.613Z,6.63
2017-10-04T21:02:59.273Z,5.10
2017-10-04T21:05:26.830Z,5.20
2017-10-04T21:07:54.406Z,5.03
2017-10-04T21:10:21.962Z,5.07
2017-10-04T21:12:49.551Z,4.60
2017-10-04T21:15:17.166Z,4.87
2017-10-04T21:17:45.158Z,5.60
2017-10-04T21:20:12.714Z,5.70
2017-10-04T21:22:40.320Z,4.87
2017-10-04T21:25:07.874Z,5.13
2017-10-04T21:27:35.425Z,4.90
2017-10-04T21:30:04.442Z,4.90
2017-10-04T21:32:31.985Z,5.53
2017-10-04T21:34:59.596Z,5.40
2017-10-04T21:37:27.546Z,5.50
2017-10-04T21:39:55.133Z,5.40
2017-10-04T21:42:24.025Z,5.17
2017-10-04T21:44:51.655Z,4.80
2017-10-04T21:47:19.213Z,5.50
2017-10-04T21:49:46.874Z,5.30
2017-10-04T21:52:14.821Z,5.37
2017-10-04T21:54:42.830Z,5.10
2017-10-04T21:57:10.389Z,5.67
2017-10-04T21:59:38.704Z,5.50
2017-10-04T22:02:06.330Z,5.30
2017-10-04T22:04:33.881Z,5.80
2017-10-04T22:07:01.434Z,5.60
2017-10-04T22:09:29.908Z,5.50
2017-10-04T22:11:57.457Z,5.80
2017-10-04T22:14:25.017Z,5.80
2017-10-04T22:16:53.209Z,6.43
2017-10-04T22:19:21.055Z,5.37
2017-10-04T22:21:49.023Z,5.97
2017-10-04T22:24:16.647Z,6.20
2017-10-04T22:26:44.778Z,5.90
2017-10-04T22:29:12.429Z,5.60
2017-10-04T22:31:40.089Z,5.20
2017-10-04T22:34:08.507Z,5.80
2017-10-04T22:36:36.062Z,5.43
2017-10-04T22:39:03.687Z,5.83
2017-10-04T22:41:31.240Z,5.80
2017-10-04T22:44:00.321Z,5.07
2017-10-04T22:46:27.983Z,4.60
2017-10-04T22:48:55.560Z,5.53
2017-10-04T22:51:23.874Z,4.97
2017-10-04T22:53:51.490Z,5.03
2017-10-04T22:56:19.036Z,4.50
2017-10-04T22:58:46.593Z,4.70
2017-10-04T23:01:14.206Z,4.07
2017-10-04T23:03:41.811Z,4.27
2017-10-04T23:06:09.802Z,5.30
2017-10-04T23:08:37.393Z,5.43
2017-10-04T23:11:05.001Z,4.83
2017-10-04T23:13:32.556Z,5.37
2017-10-04T23:16:00.165Z,5.43
2017-10-04T23:18:27.980Z,5.33
2017-10-04T23:20:55.537Z,4.50
2017-10-04T23:23:23.160Z,4.53
2017-10-04T23:25:50.755Z,4.17
2017-10-04T23:28:19.088Z,4.50
2017-10-04T23:30:46.796Z,4.00
2017-10-04T23:33:14.745Z,4.20
2017-10-04T23:35:42.424Z,3.70
2017-10-04T23:38:10.043Z,4.00
2017-10-04T23:40:37.598Z,4.03
2017-10-04T23:43:05.136Z,3.50
2017-10-04T23:45:32.740Z,4.67
2017-10-04T23:48:00.450Z,3.57
2017-10-04T23:50:28.079Z,3.57
2017-10-04T23:52:55.655Z,3.57
2017-10-04T23:55:23.218Z,3.20
2017-10-04T23:57:50.872Z,3.67
